createdAt,value
2018-09-28T00:02:11.534Z,101761.02
2018-09-28T00:04:40.352Z,101761.54
2018-09-28T00:07:09.223Z,101765.84
2018-09-28T00:09:38.062Z,101767.06
2018-09-28T00:12:06.909Z,101763.02
2018-09-28T00:14:35.716Z,101767.62
2018-09-28T00:17:04.540Z,101764.31
2018-09-28T00:19:33.393Z,101767.17
2018-09-28T00:22:02.250Z,101760.86
2018-09-28T00:24:31.082Z,101762.64
2018-09-28T00:26:59.925Z,101765.95
2018-09-28T00:29:28.738Z,101770.96
2018-09-28T00:31:57.610Z,101769.02
2018-09-28T00:34:26.529Z,101767.50
2018-09-28T00:36:55.393Z,101755.85
2018-09-28T00:39:24.224Z,101757.80
2018-09-28T00:41:53.070Z,101751.55
2018-09-28T00:44:21.936Z,101754.77
2018-09-28T00:46:50.766Z,101757.69
2018-09-28T00:49:19.615Z,101757.53
2018-09-28T00:51:48.438Z,101767.39
2018-09-28T00:54:17.265Z,101759.64
2018-09-28T00:56:46.130Z,101759.97
2018-09-28T00:59:14.970Z,101756.64
2018-09-28T01:01:43.799Z,101752.45
2018-09-28T01:04:12.624Z,101750.72
2018-09-28T01:06:41.470Z,101750.08
2018-09-28T01:09:12.390Z,101756.36
2018-09-28T01:11:41.216Z,101755.49
2018-09-28T01:14:10.031Z,101757.82
2018-09-28T01:16:38.861Z,101759.50
2018-09-28T01:19:07.692Z,101760.36
2018-09-28T01:21:36.557Z,101760.70
2018-09-28T01:24:05.434Z,101756.80
2018-09-28T01:26:34.263Z,101755.03
2018-09-28T01:29:03.112Z,101759.48
2018-09-28T01:31:32.174Z,101762.30
2018-09-28T01:34:01.070Z,101765.48
2018-09-28T01:36:29.920Z,101762.98
2018-09-28T01:38:58.741Z,101769.97
2018-09-28T01:41:27.618Z,101770.84
2018-09-28T01:43:56.480Z,101768.66
2018-09-28T01:46:25.365Z,101770.13
2018-09-28T01:48:54.170Z,101773.16
2018-09-28T01:51:22.990Z,101775.86
2018-09-28T01:53:51.845Z,101768.44
2018-09-28T01:56:20.684Z,101770.66
2018-09-28T01:58:49.537Z,101767.48
2018-09-28T02:01:18.369Z,101765.64
2018-09-28T02:03:47.213Z,101767.42
2018-09-28T02:06:16.060Z,101772.35
2018-09-28T02:08:44.876Z,101769.37
2018-09-28T02:11:13.713Z,101772.23
2018-09-28T02:13:42.550Z,101773.98
2018-09-28T02:16:11.503Z,101766.73
2018-09-28T02:18:40.319Z,101769.50
2018-09-28T02:21:09.191Z,101760.66
2018-09-28T02:23:38.012Z,101762.50
2018-09-28T02:26:07.005Z,101756.61
2018-09-28T02:28:35.828Z,101758.45
2018-09-28T02:31:04.710Z,101760.83
2018-09-28T02:33:33.542Z,101762.45
2018-09-28T02:36:02.392Z,101767.38
2018-09-28T02:38:31.264Z,101772.31
2018-09-28T02:41:00.144Z,101775.55
2018-09-28T02:43:29.009Z,101778.16
2018-09-28T02:45:57.853Z,101771.91
2018-09-28T02:48:26.721Z,101768.70
2018-09-28T02:50:55.567Z,101773.63
2018-09-28T02:53:24.381Z,101773.82
2018-09-28T02:55:53.240Z,101779.22
2018-09-28T02:58:22.088Z,101777.49
2018-09-28T03:00:50.927Z,101787.85
2018-09-28T03:03:19.769Z,101790.83
2018-09-28T03:05:48.589Z,101797.98
2018-09-28T03:08:17.434Z,101790.70
2018-09-28T03:10:46.293Z,101796.91
2018-09-28T03:13:15.150Z,101798.64
2018-09-28T03:15:44.005Z,101803.80
2018-09-28T03:18:12.829Z,101803.08
2018-09-28T03:20:41.707Z,101813.95
2018-09-28T03:23:10.554Z,101815.34
2018-09-28T03:25:39.374Z,101812.84
2018-09-28T03:28:08.208Z,101818.79
2018-09-28T03:30:37.054Z,101813.71
2018-09-28T03:33:05.913Z,101814.34
2018-09-28T03:35:34.762Z,101809.53
2018-09-28T03:38:03.700Z,101820.62
2018-09-28T03:40:32.568Z,101822.48
2018-09-28T03:43:01.354Z,101827.78
2018-09-28T03:45:30.195Z,101817.27
2018-09-28T03:47:59.060Z,101824.55
2018-09-28T03:50:27.921Z,101827.25
2018-09-28T03:52:56.787Z,101825.89
2018-09-28T03:55:25.641Z,101829.20
2018-09-28T03:57:54.460Z,101827.33
2018-09-28T04:00:23.334Z,101840.55
2018-09-28T04:02:52.228Z,101839.06
2018-09-28T04:05:21.036Z,101834.98
2018-09-28T04:07:49.875Z,101836.84
2018-09-28T04:10:18.728Z,101842.25
2018-09-28T04:12:47.586Z,101844.35
2018-09-28T04:15:16.516Z,101843.70
2018-09-28T04:17:45.250Z,101857.14
2018-09-28T04:20:14.108Z,101850.95
2018-09-28T04:22:42.952Z,101849.43
2018-09-28T04:25:11.781Z,101857.30
2018-09-28T04:27:40.624Z,101861.13
2018-09-28T04:30:09.460Z,101873.27
2018-09-28T04:32:38.333Z,101875.31
2018-09-28T04:35:07.182Z,101873.77
2018-09-28T04:37:36.022Z,101884.86
2018-09-28T04:40:04.846Z,101877.66
2018-09-28T04:42:33.664Z,101888.01
2018-09-28T04:45:02.526Z,101891.83
2018-09-28T04:47:31.360Z,101895.14
2018-09-28T04:50:00.277Z,101897.09
2018-09-28T04:52:29.209Z,101895.97
2018-09-28T04:54:58.023Z,101905.50
2018-09-28T04:57:26.836Z,101906.00
2018-09-28T04:59:55.674Z,101905.14
2018-09-28T05:02:24.497Z,101911.69
2018-09-28T05:04:53.301Z,101917.77
2018-09-28T05:07:22.161Z,101916.89
2018-09-28T05:09:51.060Z,101923.84
2018-09-28T05:12:19.927Z,101926.05
2018-09-28T05:14:48.782Z,101938.09
2018-09-28T05:17:17.625Z,101938.81
2018-09-28T05:19:46.481Z,101946.30
2018-09-28T05:22:15.312Z,101955.70
2018-09-28T05:24:44.145Z,101956.77
2018-09-28T05:27:12.997Z,101963.37
2018-09-28T05:29:41.864Z,101965.66
2018-09-28T05:32:10.781Z,101974.98
2018-09-28T05:34:39.621Z,101972.39
2018-09-28T05:37:08.499Z,101981.69
2018-09-28T05:39:37.313Z,101971.28
2018-09-28T05:42:06.127Z,101976.37
2018-09-28T05:44:34.928Z,101991.11
2018-09-28T05:47:03.788Z,101993.00
2018-09-28T05:49:32.592Z,101998.70
2018-09-28T05:52:01.443Z,101997.34
2018-09-28T05:54:30.245Z,101997.91
2018-09-28T05:56:59.078Z,102000.22
2018-09-28T05:59:45.605Z,102005.09
2018-09-28T06:02:32.106Z,102016.48
2018-09-28T06:05:18.595Z,102014.62
2018-09-28T06:07:47.371Z,102018.52
2018-09-28T06:10:16.262Z,102019.09
2018-09-28T06:12:45.089Z,102024.86
2018-09-28T06:15:13.925Z,102032.53
2018-09-28T06:17:42.738Z,102036.63
2018-09-28T06:20:11.631Z,102035.64
2018-09-28T06:22:40.466Z,102047.70
2018-09-28T06:25:09.290Z,102053.52
2018-09-28T06:27:38.161Z,102054.20
2018-09-28T06:30:07.059Z,102064.48
2018-09-28T06:32:35.862Z,102073.74
2018-09-28T06:35:04.687Z,102068.16
2018-09-28T06:37:33.531Z,102072.69
2018-09-28T06:40:02.360Z,102077.77
2018-09-28T06:42:31.287Z,102081.20
2018-09-28T06:45:00.105Z,102084.98
2018-09-28T06:47:28.943Z,102081.97
2018-09-28T06:49:57.782Z,102096.13
2018-09-28T06:52:26.850Z,102097.00
2018-09-28T06:54:55.685Z,102102.22
2018-09-28T06:57:24.512Z,102111.03
2018-09-28T06:59:53.424Z,102114.02
2018-09-28T07:02:22.199Z,102122.57
2018-09-28T07:04:51.001Z,102135.08
2018-09-28T07:07:19.920Z,102127.64
2018-09-28T07:09:48.725Z,102133.33
2018-09-28T07:12:17.633Z,102138.66
2018-09-28T07:14:46.396Z,102143.00
2018-09-28T07:17:15.243Z,102147.03
2018-09-28T07:19:44.066Z,102147.30
2018-09-28T07:22:12.946Z,102153.80
2018-09-28T07:24:41.879Z,102158.69
2018-09-28T07:27:10.618Z,102157.88
2018-09-28T07:29:39.515Z,102167.88
2018-09-28T07:32:08.296Z,102175.25
2018-09-28T07:34:37.143Z,102180.09
2018-09-28T07:37:06.125Z,102181.00
2018-09-28T07:39:34.818Z,102180.50
2018-09-28T07:42:03.753Z,102179.98
2018-09-28T07:44:32.647Z,102179.84
2018-09-28T07:47:01.478Z,102180.50
2018-09-28T07:49:30.294Z,102186.80
2018-09-28T07:51:59.136Z,102178.36
2018-09-28T07:54:28.726Z,102181.21
2018-09-28T07:56:57.561Z,102180.14
2018-09-28T07:59:26.392Z,102188.77
2018-09-28T08:01:55.235Z,102185.09
2018-09-28T08:04:24.071Z,102196.33
2018-09-28T08:06:52.898Z,102200.80
2018-09-28T08:09:21.749Z,102208.72
2018-09-28T08:11:50.610Z,102210.91
2018-09-28T08:14:19.498Z,102216.81
2018-09-28T08:16:48.398Z,102214.31
2018-09-28T08:19:17.286Z,102219.42
2018-09-28T08:21:46.152Z,102216.44
2018-09-28T08:24:14.992Z,102228.51
2018-09-28T08:26:43.851Z,102223.91
2018-09-28T08:29:12.700Z,102235.70
2018-09-28T08:31:41.532Z,102231.91
2018-09-28T08:34:10.352Z,102241.26
2018-09-28T08:36:39.260Z,102249.86
2018-09-28T08:39:08.705Z,102253.69
2018-09-28T08:41:37.554Z,102259.95
2018-09-28T08:44:06.378Z,102262.55
2018-09-28T08:46:35.218Z,102263.45
2018-09-28T08:49:04.611Z,102258.40
2018-09-28T08:51:33.457Z,102258.09
2018-09-28T08:54:02.331Z,102260.56
2018-09-28T08:56:31.251Z,102265.32
2018-09-28T08:59:00.099Z,102260.39
2018-09-28T09:01:28.945Z,102267.84
2018-09-28T09:03:57.772Z,102269.33
2018-09-28T09:06:26.651Z,102267.33
2018-09-28T09:08:55.486Z,102266.58
2018-09-28T09:11:24.346Z,102272.06
2018-09-28T09:13:53.192Z,102267.48
2018-09-28T09:16:22.101Z,102266.08
2018-09-28T09:18:50.939Z,102265.24
2018-09-28T09:21:19.785Z,102271.17
2018-09-28T09:23:48.654Z,102282.92
2018-09-28T09:26:17.492Z,102275.37
2018-09-28T09:28:46.311Z,102290.56
2018-09-28T09:31:15.197Z,102291.64
2018-09-28T09:33:44.089Z,102291.30
2018-09-28T09:36:12.907Z,102288.79
2018-09-28T09:38:41.719Z,102299.72
2018-09-28T09:41:10.657Z,102297.35
2018-09-28T09:43:39.479Z,102296.52
2018-09-28T09:46:08.468Z,102296.03
2018-09-28T09:48:37.362Z,102301.33
2018-09-28T09:51:06.127Z,102304.67
2018-09-28T09:53:34.953Z,102293.00
2018-09-28T09:56:03.841Z,102299.16
2018-09-28T09:58:32.629Z,102290.66
2018-09-28T10:01:08.169Z,102292.16
2018-09-28T10:03:50.471Z,102297.72
2018-09-28T10:06:22.621Z,102301.30
2018-09-28T10:08:51.439Z,102304.34
2018-09-28T10:11:20.304Z,102296.84
2018-09-28T10:13:49.136Z,102301.20
2018-09-28T10:16:17.958Z,102295.27
2018-09-28T10:18:46.843Z,102298.02
2018-09-28T10:21:15.774Z,102291.95
2018-09-28T10:23:44.543Z,102305.55
2018-09-28T10:26:13.371Z,102305.22
2018-09-28T10:28:42.268Z,102301.19
2018-09-28T10:31:11.049Z,102299.33
2018-09-28T10:33:40.117Z,102294.70
2018-09-28T10:36:08.896Z,102301.19
2018-09-28T10:38:37.763Z,102312.80
2018-09-28T10:41:06.762Z,102319.92
2018-09-28T10:43:35.489Z,102323.13
2018-09-28T10:46:04.398Z,102322.06
2018-09-28T10:48:33.242Z,102325.69
2018-09-28T10:51:02.087Z,102325.97
2018-09-28T10:53:30.921Z,102323.75
2018-09-28T10:55:59.742Z,102323.28
2018-09-28T10:58:28.640Z,102322.42
2018-09-28T11:00:57.407Z,102317.26
2018-09-28T11:03:26.240Z,102320.70
2018-09-28T11:05:55.116Z,102328.20
2018-09-28T11:08:23.935Z,102317.95
2018-09-28T11:10:52.715Z,102312.98
2018-09-28T11:13:21.530Z,102312.68
2018-09-28T11:15:50.397Z,102322.09
2018-09-28T11:18:19.169Z,102306.31
2018-09-28T11:20:48.022Z,102304.41
2018-09-28T11:23:16.850Z,102309.45
2018-09-28T11:25:45.670Z,102309.77
2018-09-28T11:28:14.489Z,102311.98
2018-09-28T11:30:43.356Z,102304.45
2018-09-28T11:33:12.178Z,102318.00
2018-09-28T11:35:41.009Z,102321.11
2018-09-28T11:38:09.841Z,102315.33
2018-09-28T11:40:38.712Z,102327.03
2018-09-28T11:43:07.628Z,102316.50
2018-09-28T11:45:36.398Z,102322.73
2018-09-28T11:48:05.206Z,102319.00
2018-09-28T11:50:34.053Z,102322.80
2018-09-28T11:53:02.896Z,102324.84
2018-09-28T11:55:31.739Z,102322.41
2018-09-28T11:58:00.573Z,102324.34
2018-09-28T12:00:29.422Z,102321.77
2018-09-28T12:02:58.241Z,102324.48
2018-09-28T12:05:27.088Z,102324.29
2018-09-28T12:07:55.917Z,102330.34
2018-09-28T12:10:24.730Z,102324.64
2018-09-28T12:12:53.575Z,102315.88
2018-09-28T12:15:22.500Z,102319.10
2018-09-28T12:17:51.271Z,102325.31
2018-09-28T12:20:20.117Z,102323.93
2018-09-28T12:22:48.953Z,102314.48
2018-09-28T12:25:17.767Z,102311.35
2018-09-28T12:27:46.693Z,102307.75
2018-09-28T12:30:15.459Z,102309.46
2018-09-28T12:32:44.247Z,102307.77
2018-09-28T12:35:13.065Z,102300.17
2018-09-28T12:37:41.912Z,102299.00
2018-09-28T12:40:10.728Z,102296.58
2018-09-28T12:42:39.615Z,102291.08
2018-09-28T12:45:08.461Z,102295.00
2018-09-28T12:47:37.249Z,102288.80
2018-09-28T12:50:06.166Z,102291.27
2018-09-28T12:52:34.984Z,102289.06
2018-09-28T12:55:03.790Z,102291.99
2018-09-28T12:57:32.675Z,102298.53
2018-09-28T13:00:01.512Z,102287.20
2018-09-28T13:02:30.399Z,102293.72
2018-09-28T13:04:59.304Z,102290.48
2018-09-28T13:07:28.125Z,102303.48
2018-09-28T13:09:56.957Z,102303.22
2018-09-28T13:12:25.891Z,102310.67
2018-09-28T13:14:54.761Z,102307.52
2018-09-28T13:17:23.438Z,102307.03
2018-09-28T13:19:52.258Z,102312.73
2018-09-28T13:22:21.140Z,102320.62
2018-09-28T13:24:50.020Z,102315.92
2018-09-28T13:27:18.756Z,102319.32
2018-09-28T13:29:47.590Z,102324.97
2018-09-28T13:32:16.545Z,102317.16
2018-09-28T13:34:45.236Z,102305.53
2018-09-28T13:37:14.081Z,102307.48
2018-09-28T13:39:42.895Z,102310.08
2018-09-28T13:42:11.802Z,102303.58
2018-09-28T13:44:40.704Z,102303.70
2018-09-28T13:47:09.738Z,102311.52
2018-09-28T13:49:38.548Z,102318.64
2018-09-28T13:52:07.426Z,102325.63
2018-09-28T13:54:36.263Z,102325.69
2018-09-28T13:57:05.048Z,102326.30
2018-09-28T13:59:33.913Z,102323.31
2018-09-28T14:02:02.768Z,102326.52
2018-09-28T14:04:31.649Z,102333.45
2018-09-28T14:07:00.663Z,102332.31
2018-09-28T14:09:29.280Z,102328.47
2018-09-28T14:11:58.108Z,102332.73
2018-09-28T14:14:27.020Z,102338.19
2018-09-28T14:16:55.811Z,102331.69
2018-09-28T14:19:24.670Z,102328.62
2018-09-28T14:21:53.520Z,102327.09
2018-09-28T14:24:22.489Z,102336.31
2018-09-28T14:26:51.326Z,102340.42
2018-09-28T14:29:20.077Z,102349.45
2018-09-28T14:31:48.946Z,102354.59
2018-09-28T14:34:17.814Z,102351.83
2018-09-28T14:36:46.705Z,102352.30
2018-09-28T14:39:15.491Z,102345.91
2018-09-28T14:41:44.341Z,102344.42
2018-09-28T14:44:13.265Z,102339.91
2018-09-28T14:46:42.108Z,102345.78
2018-09-28T14:49:11.033Z,102345.95
2018-09-28T14:51:39.714Z,102344.49
2018-09-28T14:54:08.608Z,102350.84
2018-09-28T14:56:37.457Z,102351.41
2018-09-28T14:59:06.251Z,102345.85
2018-09-28T15:01:35.090Z,102347.77
2018-09-28T15:04:03.955Z,102345.25
2018-09-28T15:06:32.854Z,102352.64
2018-09-28T15:09:01.618Z,102355.18
2018-09-28T15:11:32.630Z,102355.11
2018-09-28T15:14:01.503Z,102363.25
2018-09-28T15:16:30.358Z,102363.33
2018-09-28T15:18:59.160Z,102368.95
2018-09-28T15:21:27.978Z,102367.08
2018-09-28T15:23:56.862Z,102374.50
2018-09-28T15:26:25.679Z,102374.99
2018-09-28T15:28:54.525Z,102376.42
2018-09-28T15:31:23.341Z,102382.32
2018-09-28T15:33:52.203Z,102374.99
2018-09-28T15:36:21.084Z,102368.53
2018-09-28T15:38:49.923Z,102365.94
2018-09-28T15:41:18.903Z,102377.62
2018-09-28T15:43:47.757Z,102369.55
2018-09-28T15:46:16.619Z,102383.10
2018-09-28T15:48:45.442Z,102387.40
2018-09-28T15:51:14.256Z,102376.02
2018-09-28T15:53:43.087Z,102387.84
2018-09-28T15:56:11.919Z,102377.31
2018-09-28T15:58:40.756Z,102382.00
2018-09-28T16:01:09.597Z,102383.95
2018-09-28T16:03:38.425Z,102384.86
2018-09-28T16:06:07.265Z,102392.05
2018-09-28T16:08:36.124Z,102393.42
2018-09-28T16:11:04.970Z,102399.19
2018-09-28T16:13:33.802Z,102399.24
2018-09-28T16:16:02.707Z,102402.12
2018-09-28T16:18:31.631Z,102398.52
2018-09-28T16:21:00.490Z,102402.02
2018-09-28T16:23:29.330Z,102404.70
2018-09-28T16:25:58.388Z,102401.80
2018-09-28T16:28:27.250Z,102398.33
2018-09-28T16:30:56.089Z,102411.34
2018-09-28T16:33:25.093Z,102413.06
2018-09-28T16:35:53.951Z,102426.42
2018-09-28T16:38:22.797Z,102419.28
2018-09-28T16:40:51.632Z,102422.70
2018-09-28T16:43:20.453Z,102421.95
2018-09-28T16:45:49.332Z,102420.53
2018-09-28T16:48:18.138Z,102424.45
2018-09-28T16:50:47.008Z,102434.33
2018-09-28T16:53:15.823Z,102431.40
2018-09-28T16:55:44.681Z,102449.17
2018-09-28T16:58:13.492Z,102453.03
2018-09-28T17:00:42.379Z,102456.67
2018-09-28T17:03:11.224Z,102464.65
2018-09-28T17:05:40.049Z,102465.30
2018-09-28T17:08:08.924Z,102464.44
2018-09-28T17:10:38.053Z,102462.73
2018-09-28T17:13:06.907Z,102467.97
2018-09-28T17:15:35.745Z,102475.03
2018-09-28T17:18:04.679Z,102476.99
2018-09-28T17:20:33.492Z,102480.41
2018-09-28T17:23:02.352Z,102483.13
2018-09-28T17:25:31.172Z,102493.32
2018-09-28T17:28:00.025Z,102496.66
2018-09-28T17:30:28.852Z,102494.29
2018-09-28T17:32:57.712Z,102501.23
2018-09-28T17:35:26.549Z,102506.45
2018-09-28T17:37:55.432Z,102512.14
2018-09-28T17:40:24.312Z,102512.14
2018-09-28T17:42:53.148Z,102505.14
2018-09-28T17:45:21.989Z,102512.08
2018-09-28T17:47:50.866Z,102519.89
2018-09-28T17:50:19.748Z,102525.09
2018-09-28T17:52:48.571Z,102532.39
2018-09-28T17:55:17.409Z,102531.98
2018-09-28T17:57:46.250Z,102526.67
2018-09-28T18:00:15.518Z,102536.03
2018-09-28T18:02:44.359Z,102535.64
2018-09-28T18:05:13.167Z,102541.58
2018-09-28T18:07:42.006Z,102546.16
2018-09-28T18:10:10.901Z,102545.67
2018-09-28T18:12:39.739Z,102546.70
2018-09-28T18:15:08.619Z,102552.20
2018-09-28T18:17:37.479Z,102556.36
2018-09-28T18:20:06.321Z,102564.23
2018-09-28T18:22:35.145Z,102557.36
2018-09-28T18:25:03.972Z,102567.50
2018-09-28T18:27:32.890Z,102567.50
2018-09-28T18:30:01.825Z,102569.72
2018-09-28T18:32:30.644Z,102569.37
2018-09-28T18:34:59.505Z,102573.16
2018-09-28T18:37:28.395Z,102571.77
2018-09-28T18:39:57.246Z,102574.02
2018-09-28T18:42:26.060Z,102573.39
2018-09-28T18:44:58.280Z,102567.98
2018-09-28T18:47:27.121Z,102576.02
2018-09-28T18:49:56.347Z,102577.59
2018-09-28T18:52:25.533Z,102570.20
2018-09-28T18:54:54.654Z,102575.08
2018-09-28T18:57:24.121Z,102576.69
2018-09-28T18:59:52.966Z,102577.66
2018-09-28T19:02:21.826Z,102582.33
2018-09-28T19:04:50.648Z,102577.38
2018-09-28T19:07:19.476Z,102574.34
2018-09-28T19:09:48.340Z,102584.23
2018-09-28T19:12:17.187Z,102588.86
2018-09-28T19:14:45.983Z,102592.99
2018-09-28T19:17:14.823Z,102591.35
2018-09-28T19:19:43.672Z,102590.63
2018-09-28T19:22:12.527Z,102591.07
2018-09-28T19:24:41.399Z,102590.94
2018-09-28T19:27:10.218Z,102593.80
2018-09-28T19:29:39.152Z,102596.36
2018-09-28T19:32:07.969Z,102604.52
2018-09-28T19:34:36.849Z,102601.89
2018-09-28T19:37:05.713Z,102608.10
2018-09-28T19:39:34.577Z,102608.20
2018-09-28T19:42:03.434Z,102606.30
2018-09-28T19:44:32.253Z,102611.92
2018-09-28T19:47:01.097Z,102609.05
2018-09-28T19:49:29.945Z,102621.86
2018-09-28T19:51:58.844Z,102612.94
2018-09-28T19:54:27.706Z,102620.53
2018-09-28T19:56:56.537Z,102623.52
2018-09-28T19:59:25.376Z,102628.13
2018-09-28T20:01:54.273Z,102626.84
2018-09-28T20:04:23.207Z,102633.08
2018-09-28T20:06:52.027Z,102632.09
2018-09-28T20:09:20.874Z,102632.85
2018-09-28T20:11:49.697Z,102631.21
2018-09-28T20:14:18.518Z,102634.72
2018-09-28T20:16:47.374Z,102641.47
2018-09-28T20:19:16.196Z,102643.13
2018-09-28T20:21:45.085Z,102654.34
2018-09-28T20:24:13.941Z,102648.16
2018-09-28T20:26:42.791Z,102651.54
2018-09-28T20:29:11.635Z,102652.29
2018-09-28T20:31:40.495Z,102653.95
2018-09-28T20:34:09.332Z,102652.29
2018-09-28T20:36:38.164Z,102657.14
2018-09-28T20:39:09.496Z,102665.88
2018-09-28T20:41:38.338Z,102666.02
2018-09-28T20:44:07.160Z,102662.25
2018-09-28T20:46:36.810Z,102670.47
2018-09-28T20:49:05.884Z,102671.52
2018-09-28T20:51:34.663Z,102666.63
2018-09-28T20:54:03.512Z,102662.20
2018-09-28T20:56:32.361Z,102667.15
2018-09-28T20:59:01.207Z,102675.36
2018-09-28T21:01:30.029Z,102674.78
2018-09-28T21:03:58.887Z,102670.03
2018-09-28T21:06:27.725Z,102679.32
2018-09-28T21:08:56.581Z,102671.48
2018-09-28T21:11:25.484Z,102671.18
2018-09-28T21:13:54.338Z,102673.97
2018-09-28T21:16:23.215Z,102669.53
2018-09-28T21:18:52.043Z,102666.72
2018-09-28T21:21:20.890Z,102666.93
2018-09-28T21:23:49.741Z,102661.19
2018-09-28T21:26:18.574Z,102661.84
2018-09-28T21:28:47.380Z,102669.77
2018-09-28T21:31:16.228Z,102660.94
2018-09-28T21:33:45.066Z,102659.64
2018-09-28T21:36:13.904Z,102665.28
2018-09-28T21:38:42.755Z,102667.95
2018-09-28T21:41:11.585Z,102660.00
2018-09-28T21:43:40.449Z,102668.00
2018-09-28T21:46:09.327Z,102673.09
2018-09-28T21:48:38.157Z,102672.55
2018-09-28T21:51:07.056Z,102683.65
2018-09-28T21:53:35.903Z,102684.96
2018-09-28T21:56:04.729Z,102682.29
2018-09-28T21:58:33.556Z,102681.65
2018-09-28T22:01:02.410Z,102681.06
2018-09-28T22:03:31.228Z,102680.78
2018-09-28T22:06:00.071Z,102674.29
2018-09-28T22:08:28.896Z,102683.11
2018-09-28T22:10:57.749Z,102683.06
2018-09-28T22:13:26.592Z,102680.59
2018-09-28T22:15:55.415Z,102677.20
2018-09-28T22:18:24.316Z,102670.15
2018-09-28T22:20:53.180Z,102675.66
2018-09-28T22:23:22.082Z,102680.41
2018-09-28T22:25:50.891Z,102677.02
2018-09-28T22:28:19.707Z,102678.66
2018-09-28T22:30:48.542Z,102676.11
2018-09-28T22:33:17.357Z,102677.41
2018-09-28T22:35:46.234Z,102683.85
2018-09-28T22:38:15.061Z,102682.50
2018-09-28T22:40:43.988Z,102678.13
2018-09-28T22:43:12.816Z,102685.18
2018-09-28T22:45:41.671Z,102690.44
2018-09-28T22:48:10.492Z,102691.17
2018-09-28T22:50:39.339Z,102695.04
2018-09-28T22:53:08.148Z,102692.56
2018-09-28T22:55:36.988Z,102685.80
2018-09-28T22:58:05.837Z,102686.71
2018-09-28T23:00:34.674Z,102685.95
2018-09-28T23:03:03.510Z,102692.59
2018-09-28T23:05:32.422Z,102696.91
2018-09-28T23:08:01.197Z,102698.97
2018-09-28T23:10:30.058Z,102703.16
2018-09-28T23:12:58.845Z,102694.04
2018-09-28T23:15:27.660Z,102695.99
2018-09-28T23:17:56.469Z,102694.31
2018-09-28T23:20:25.291Z,102686.42
2018-09-28T23:22:54.225Z,102686.28
2018-09-28T23:25:23.063Z,102688.98
2018-09-28T23:27:51.905Z,102687.20
2018-09-28T23:30:20.726Z,102683.86
2018-09-28T23:32:49.584Z,102683.91
2018-09-28T23:35:18.415Z,102684.28
2018-09-28T23:37:47.270Z,102688.42
2018-09-28T23:40:16.076Z,102683.23
2018-09-28T23:42:44.902Z,102692.04
2018-09-28T23:45:13.723Z,102688.56
2018-09-28T23:47:42.622Z,102683.64
2018-09-28T23:50:11.376Z,102677.68
2018-09-28T23:52:40.216Z,102677.78
2018-09-28T23:55:09.085Z,102679.67
2018-09-28T23:57:37.931Z,102681.84
